Time;durP1;ratioP1;P1;durP2;ratioP2;P2;SDS_P1;SDS_P2;PMS_P1;PMS_P2;Temp;Humidity;BMP_temperature;BMP_pressure;BME280_temperature;BME280_humidity;BME280_pressure;Samples;Min_cycle;Max_cycle;Signal;HPM_P1;HPM_P2
2021/12/30 00:00:19;;;;;;;21.85;7.68;;;;;;;14.99;66.13;100426.53;682328;29;1296;-80
2021/12/30 00:00:43;;;;;;;22.85;8.00;;;;;;;15.08;66.03;100442.31;685176;28;1148;-80
2021/12/30 00:01:12;;;;;;;19.67;8.52;;;;;;;15.20;65.78;100445.88;679605;29;1506;-80
2021/12/30 00:01:33;;;;;;;19.38;8.55;;;;;;;15.16;65.68;100428.34;677240;29;830;-80
2021/12/30 00:01:56;;;;;;;18.43;7.97;;;;;;;15.07;65.41;100440.56;679933;29;1081;-81
2021/12/30 00:02:17;;;;;;;21.33;8.20;;;;;;;15.13;65.72;100444.09;679337;29;1268;-81
2021/12/30 00:02:37;;;;;;;22.98;8.25;;;;;;;15.06;66.14;100446.69;679815;29;1066;-81
2021/12/30 00:02:58;;;;;;;25.95;8.25;;;;;;;15.05;65.93;100428.28;679714;29;1649;-81
2021/12/30 00:03:19;;;;;;;24.30;8.03;;;;;;;15.09;65.90;100448.47;680108;29;1012;-81
2021/12/30 00:03:40;;;;;;;24.40;7.95;;;;;;;15.07;65.91;100432.69;675622;29;1156;-81
2021/12/30 00:04:00;;;;;;;20.95;7.95;;;;;;;15.17;65.78;100446.75;682612;29;1096;-81
2021/12/30 00:04:22;;;;;;;18.67;7.75;;;;;;;15.11;65.52;100424.84;682638;29;1084;-80
2021/12/30 00:04:43;;;;;;;18.85;7.43;;;;;;;15.27;65.36;100426.66;679687;29;1510;-81
2021/12/30 00:05:04;;;;;;;18.50;7.50;;;;;;;15.21;65.52;100432.78;677608;29;1340;-81
2021/12/30 00:05:25;;;;;;;19.98;7.53;;;;;;;15.20;65.47;100430.97;674845;29;1240;-80
2021/12/30 00:05:46;;;;;;;23.70;8.20;;;;;;;15.19;65.43;100433.63;676165;29;1466;-81
2021/12/30 00:06:07;;;;;;;25.43;8.03;;;;;;;15.10;65.55;100436.22;677328;29;1067;-80
2021/12/30 00:06:29;;;;;;;24.27;8.40;;;;;;;15.03;65.70;100428.31;678781;29;796;-81
2021/12/30 00:06:51;;;;;;;21.85;8.00;;;;;;;15.03;65.64;100423.06;681991;29;1131;-81
2021/12/30 00:07:12;;;;;;;19.98;7.43;;;;;;;15.01;65.73;100429.16;682191;29;1368;-81
2021/12/30 00:07:33;;;;;;;20.05;7.80;;;;;;;15.16;65.65;100436.22;679971;29;769;-80
2021/12/30 00:07:53;;;;;;;21.20;7.97;;;;;;;15.12;65.45;100427.44;677480;29;1186;-81
2021/12/30 00:08:14;;;;;;;22.25;8.50;;;;;;;15.13;65.41;100423.06;677137;29;1234;-80
2021/12/30 00:08:35;;;;;;;21.20;8.23;;;;;;;15.07;65.24;100423.94;677307;29;1911;-80
2021/12/30 00:08:56;;;;;;;21.92;9.15;;;;;;;15.12;65.27;100429.22;677379;29;958;-80
2021/12/30 00:09:18;;;;;;;18.83;8.70;;;;;;;15.07;65.23;100427.44;679794;29;1088;-81
2021/12/30 00:09:39;;;;;;;19.50;8.63;;;;;;;15.15;65.69;100437.09;677211;29;1117;-80
2021/12/30 00:09:59;;;;;;;18.58;8.30;;;;;;;15.02;65.34;100438.81;680263;29;1296;-81
2021/12/30 00:10:20;;;;;;;18.23;8.50;;;;;;;14.98;65.62;100434.41;677357;29;1320;-81
2021/12/30 00:10:41;;;;;;;17.50;8.10;;;;;;;14.97;65.57;100428.28;680283;29;1678;-80
2021/12/30 00:11:03;;;;;;;18.75;8.50;;;;;;;15.00;65.67;100443.19;682571;29;1148;-80
2021/12/30 00:11:24;;;;;;;20.10;8.70;;;;;;;14.99;65.68;100446.69;680234;29;1516;-80
2021/12/30 00:11:44;;;;;;;19.63;9.30;;;;;;;14.94;65.46;100429.13;678709;29;1041;-81
2021/12/30 00:12:05;;;;;;;21.35;9.30;;;;;;;14.96;65.74;100442.28;682650;29;1170;-80
2021/12/30 00:12:26;;;;;;;22.00;9.13;;;;;;;14.92;65.75;100430.00;682654;28;1304;-80
2021/12/30 00:12:47;;;;;;;23.45;8.90;;;;;;;14.94;65.80;100449.28;677086;29;1349;-81
2021/12/30 00:13:08;;;;;;;24.48;9.30;;;;;;;15.07;65.54;100443.19;680067;29;1081;-81
2021/12/30 00:13:29;;;;;;;24.02;9.18;;;;;;;15.02;65.65;100446.69;677441;29;1383;-81
2021/12/30 00:13:50;;;;;;;21.58;8.80;;;;;;;15.00;65.51;100440.56;684550;28;1156;-81
2021/12/30 00:14:10;;;;;;;21.80;8.43;;;;;;;15.08;65.23;100439.69;682659;29;1120;-81
2021/12/30 00:14:31;;;;;;;20.42;8.45;;;;;;;14.98;65.43;100421.28;681722;28;1197;-81
2021/12/30 00:14:52;;;;;;;23.27;8.95;;;;;;;15.03;65.46;100438.81;682442;29;1249;-80
2021/12/30 00:15:13;;;;;;;19.65;8.52;;;;;;;14.91;65.89;100428.25;682542;28;1200;-81
2021/12/30 00:15:35;;;;;;;21.30;8.48;;;;;;;14.98;65.73;100435.28;685092;28;1429;-81
2021/12/30 00:15:56;;;;;;;18.58;8.48;;;;;;;14.98;65.65;100430.03;679913;29;1207;-81
2021/12/30 00:16:18;;;;;;;22.13;9.23;;;;;;;15.02;65.56;100429.19;680031;29;1001;-80
2021/12/30 00:16:39;;;;;;;22.38;9.82;;;;;;;14.88;65.48;100438.75;675113;29;1273;-81
2021/12/30 00:17:00;;;;;;;21.20;9.80;;;;;;;14.90;65.85;100427.38;677265;29;1219;-81
2021/12/30 00:17:20;;;;;;;20.33;9.23;;;;;;;14.98;65.88;100447.56;677373;29;1319;-81
2021/12/30 00:17:41;;;;;;;21.00;9.37;;;;;;;14.80;66.01;100436.97;677360;29;1053;-81
2021/12/30 00:18:03;;;;;;;20.10;8.85;;;;;;;14.69;66.39;100428.13;680080;29;997;-81
2021/12/30 00:18:28;;;;;;;20.33;9.00;;;;;;;14.64;66.35;100424.63;680017;29;1336;-80
2021/12/30 00:18:49;;;;;;;19.98;8.90;;;;;;;14.66;66.63;100438.63;681586;29;1139;-81
2021/12/30 00:19:12;;;;;;;22.40;8.90;;;;;;;14.60;66.65;100438.59;682620;28;1112;-80
2021/12/30 00:19:35;;;;;;;22.13;9.00;;;;;;;14.57;66.59;100444.69;677930;29;1130;-81
2021/12/30 00:19:56;;;;;;;21.35;8.93;;;;;;;14.50;66.99;100435.91;677241;29;1257;-80
2021/12/30 00:20:17;;;;;;;22.07;8.90;;;;;;;14.51;66.87;100445.53;679998;29;1073;-81
2021/12/30 00:20:38;;;;;;;27.23;8.85;;;;;;;14.50;67.06;100440.28;680239;28;1450;-80
2021/12/30 00:20:59;;;;;;;27.95;9.15;;;;;;;14.46;67.16;100428.91;685197;28;1118;-81
2021/12/30 00:21:20;;;;;;;27.80;9.77;;;;;;;14.52;66.81;100442.03;682575;29;1063;-81
2021/12/30 00:21:41;;;;;;;23.48;9.60;;;;;;;14.57;66.95;100447.31;682577;29;1096;-81
2021/12/30 00:22:02;;;;;;;23.08;9.20;;;;;;;14.54;66.94;100436.81;674693;29;1187;-81
2021/12/30 00:22:23;;;;;;;25.50;9.02;;;;;;;14.49;66.86;100436.78;679982;28;1259;-81
2021/12/30 00:22:44;;;;;;;24.45;9.43;;;;;;;14.50;66.86;100435.03;678655;29;1043;-81
2021/12/30 00:23:07;;;;;;;25.13;9.55;;;;;;;14.59;66.79;100447.34;677386;28;1167;-81
2021/12/30 00:23:28;;;;;;;20.05;9.00;;;;;;;14.56;66.96;100455.19;680000;29;1421;-81
2021/12/30 00:23:51;;;;;;;19.10;8.43;;;;;;;14.47;66.95;100445.50;678929;29;1561;-81
2021/12/30 00:24:12;;;;;;;20.05;8.57;;;;;;;14.49;66.94;100446.38;679930;29;1218;-81
2021/12/30 00:24:32;;;;;;;26.15;9.13;;;;;;;14.57;67.01;100454.31;679393;29;1326;-81
2021/12/30 00:24:53;;;;;;;30.20;10.00;;;;;;;14.56;66.88;100453.44;677433;29;1061;-81
2021/12/30 00:25:15;;;;;;;28.35;9.80;;;;;;;14.50;66.79;100449.03;677784;29;1297;-80
2021/12/30 00:25:39;;;;;;;26.63;9.45;;;;;;;14.59;67.32;100455.22;677337;29;1121;-81
2021/12/30 00:25:59;;;;;;;23.75;9.15;;;;;;;14.62;66.77;100450.00;676747;29;1111;-81
2021/12/30 00:26:20;;;;;;;21.30;8.93;;;;;;;14.64;66.58;100448.25;677266;29;1271;-81
2021/12/30 00:26:40;;;;;;;16.87;8.43;;;;;;;14.58;66.36;100441.22;678643;29;1144;-81
2021/12/30 00:27:01;;;;;;;14.63;8.15;;;;;;;14.57;66.29;100449.94;685122;28;1070;-80
2021/12/30 00:27:22;;;;;;;15.35;8.13;;;;;;;14.52;66.51;100443.81;687926;28;1215;-81
2021/12/30 00:27:42;;;;;;;17.23;8.60;;;;;;;14.55;66.18;100442.94;687813;28;1399;-80
2021/12/30 00:28:04;;;;;;;21.08;9.05;;;;;;;14.63;66.22;100462.25;687863;28;1114;-81
2021/12/30 00:28:26;;;;;;;23.63;9.77;;;;;;;14.53;66.40;100449.03;677265;29;1911;-81
2021/12/30 00:28:47;;;;;;;23.50;9.65;;;;;;;14.47;66.31;100449.03;673569;29;1241;-80
2021/12/30 00:29:09;;;;;;;23.85;9.20;;;;;;;14.53;66.41;100462.16;677223;29;1272;-81
2021/12/30 00:29:29;;;;;;;22.10;8.80;;;;;;;14.61;66.41;100466.59;679499;29;797;-80
2021/12/30 00:29:50;;;;;;;22.10;9.30;;;;;;;14.61;66.50;100461.34;679510;29;1557;-81
2021/12/30 00:30:12;;;;;;;21.38;9.07;;;;;;;14.61;66.35;100463.97;676981;29;1696;-80
2021/12/30 00:30:33;;;;;;;23.33;9.52;;;;;;;14.30;67.13;100463.75;679977;29;1620;-80
2021/12/30 00:30:54;;;;;;;24.00;9.23;;;;;;;14.46;66.81;100465.66;682316;29;1081;-81
2021/12/30 00:31:15;;;;;;;22.30;9.63;;;;;;;14.47;66.70;100448.13;684722;28;1256;-81
2021/12/30 00:31:36;;;;;;;20.13;9.35;;;;;;;14.47;66.86;100454.28;679961;29;1152;-81
2021/12/30 00:31:57;;;;;;;20.40;9.53;;;;;;;14.41;66.75;100435.84;674803;29;946;-81
2021/12/30 00:32:17;;;;;;;19.98;9.32;;;;;;;14.45;66.62;100444.63;679543;29;1374;-81
2021/12/30 00:32:38;;;;;;;22.30;9.67;;;;;;;14.40;66.91;100436.72;683240;28;981;-81
2021/12/30 00:32:59;;;;;;;23.83;10.27;;;;;;;14.53;66.52;100450.81;682710;29;950;-81
2021/12/30 00:33:20;;;;;;;22.48;10.15;;;;;;;14.44;66.61;100451.59;685174;28;1363;-81
2021/12/30 00:33:42;;;;;;;21.67;9.90;;;;;;;14.49;66.76;100457.78;679886;29;1382;-81
2021/12/30 00:34:02;;;;;;;25.30;9.32;;;;;;;14.44;66.64;100459.47;681980;29;1097;-81
2021/12/30 00:34:23;;;;;;;25.52;8.98;;;;;;;14.47;66.63;100463.88;677481;29;867;-81
2021/12/30 00:34:43;;;;;;;26.50;9.03;;;;;;;14.45;66.56;100455.13;677097;29;1137;-81
2021/12/30 00:35:05;;;;;;;23.10;9.27;;;;;;;14.52;66.59;100467.44;677199;29;1590;-81
2021/12/30 00:35:26;;;;;;;25.35;9.60;;;;;;;14.49;66.57;100459.50;672295;29;1106;-81
2021/12/30 00:35:47;;;;;;;26.38;10.57;;;;;;;14.53;66.35;100459.53;673473;29;1096;-81
2021/12/30 00:36:09;;;;;;;25.63;9.85;;;;;;;14.58;66.31;100469.22;677201;29;1290;-81
2021/12/30 00:36:30;;;;;;;24.60;9.40;;;;;;;14.48;66.27;100460.38;677347;29;1558;-81
2021/12/30 00:36:51;;;;;;;24.20;8.77;;;;;;;14.45;66.41;100469.13;677318;29;1098;-81
2021/12/30 00:37:11;;;;;;;26.47;10.20;;;;;;;14.42;66.61;100455.09;674761;29;1190;-81
2021/12/30 00:37:32;;;;;;;26.88;10.57;;;;;;;14.30;66.68;100483.00;679936;29;1147;-81
2021/12/30 00:37:52;;;;;;;24.52;10.70;;;;;;;14.16;67.36;100480.28;679820;29;1183;-82
2021/12/30 00:38:14;;;;;;;23.37;10.07;;;;;;;14.11;67.64;100482.88;685262;28;1255;-81
2021/12/30 00:38:36;;;;;;;24.73;10.45;;;;;;;14.17;67.79;100479.41;680058;29;922;-81
2021/12/30 00:38:57;;;;;;;27.02;10.57;;;;;;;14.28;67.34;100478.63;679946;29;1244;-80
2021/12/30 00:39:18;;;;;;;26.50;10.43;;;;;;;14.28;67.30;100473.38;684897;28;1101;-81
2021/12/30 00:39:38;;;;;;;26.13;10.65;;;;;;;14.22;67.29;100475.09;680058;29;1864;-81
2021/12/30 00:39:59;;;;;;;23.30;10.50;;;;;;;14.33;67.33;100487.41;682423;28;1265;-81
2021/12/30 00:40:19;;;;;;;21.65;10.10;;;;;;;14.23;67.22;100482.09;682553;29;1153;-81
2021/12/30 00:40:40;;;;;;;23.80;9.82;;;;;;;14.34;67.09;100489.16;682484;28;1112;-81
2021/12/30 00:41:01;;;;;;;24.83;9.80;;;;;;;14.38;67.09;100496.22;682536;29;1083;-81
2021/12/30 00:41:22;;;;;;;25.40;10.48;;;;;;;14.29;67.13;100485.63;682754;28;1150;-81
2021/12/30 00:41:43;;;;;;;23.93;11.40;;;;;;;14.24;67.39;100478.59;686164;28;1264;-81
2021/12/30 00:42:03;;;;;;;23.88;11.68;;;;;;;14.34;67.36;100487.44;682446;29;1155;-81
2021/12/30 00:42:24;;;;;;;22.10;10.77;;;;;;;14.30;67.28;100477.78;685316;28;1186;-81
2021/12/30 00:42:45;;;;;;;19.53;10.03;;;;;;;14.29;67.17;100483.88;683816;28;1068;-81
2021/12/30 00:43:06;;;;;;;20.58;10.20;;;;;;;14.20;67.21;100471.56;684671;28;1614;-82
2021/12/30 00:43:27;;;;;;;25.70;10.85;;;;;;;14.28;67.51;100489.13;677335;29;1228;-81
2021/12/30 00:43:48;;;;;;;27.30;10.63;;;;;;;14.26;67.45;100476.00;681068;29;1209;-81
2021/12/30 00:44:08;;;;;;;28.77;10.50;;;;;;;14.29;67.75;100483.00;679886;29;1205;-81
2021/12/30 00:44:29;;;;;;;26.38;10.00;;;;;;;14.25;67.33;100480.34;677239;29;1111;-81
2021/12/30 00:44:59;;;;;;;25.47;10.10;;;;;;;14.35;67.16;100485.66;679393;28;1288;-81
2021/12/30 00:45:20;;;;;;;26.75;10.40;;;;;;;14.34;67.27;100489.16;677334;29;1113;-81
2021/12/30 00:45:41;;;;;;;24.48;10.10;;;;;;;14.29;67.27;100485.63;677151;29;1500;-81
2021/12/30 00:46:06;;;;;;;23.80;10.07;;;;;;;14.18;67.51;100472.41;679890;29;1397;-81
2021/12/30 00:46:27;;;;;;;19.70;9.82;;;;;;;14.22;67.39;100468.97;679879;29;1537;-81
2021/12/30 00:46:48;;;;;;;20.42;9.90;;;;;;;14.32;67.56;100485.66;682525;29;1103;-82
2021/12/30 00:47:09;;;;;;;19.33;9.85;;;;;;;14.25;67.43;100471.59;677290;29;1205;-81
2021/12/30 00:47:29;;;;;;;20.20;9.85;;;;;;;14.23;67.62;100471.59;679966;29;1217;-81
2021/12/30 00:47:50;;;;;;;22.38;10.07;;;;;;;14.19;67.68;100469.81;682509;29;1161;-81
2021/12/30 00:48:11;;;;;;;23.03;9.90;;;;;;;14.31;67.48;100486.53;679973;29;1363;-81
2021/12/30 00:48:31;;;;;;;24.13;10.00;;;;;;;14.25;67.49;100480.34;684211;28;1911;-81
2021/12/30 00:48:52;;;;;;;25.00;10.13;;;;;;;14.27;67.46;100472.50;679765;29;1055;-82
2021/12/30 00:49:13;;;;;;;24.70;10.17;;;;;;;14.34;67.64;100484.81;684735;28;1047;-81
2021/12/30 00:49:34;;;;;;;25.77;10.40;;;;;;;14.28;67.36;100476.00;684933;28;1199;-81
2021/12/30 00:49:56;;;;;;;23.30;10.27;;;;;;;14.36;67.36;100490.06;679785;28;1280;-81
2021/12/30 00:50:18;;;;;;;21.90;10.52;;;;;;;14.38;67.57;100493.59;682413;28;1210;-81
2021/12/30 00:50:41;;;;;;;20.55;10.45;;;;;;;14.32;67.51;100480.41;679937;29;1009;-81
2021/12/30 00:51:02;;;;;;;23.52;10.90;;;;;;;14.31;67.41;100473.41;674440;29;1265;-81
2021/12/30 00:51:23;;;;;;;24.25;11.07;;;;;;;14.42;67.37;100497.97;682631;29;1348;-81
2021/12/30 00:51:44;;;;;;;23.13;11.10;;;;;;;14.36;67.30;100480.44;685254;28;1147;-81
2021/12/30 00:52:04;;;;;;;24.75;10.85;;;;;;;14.32;67.40;100490.91;682382;29;1256;-81
2021/12/30 00:52:26;;;;;;;26.48;10.57;;;;;;;14.42;67.35;100492.72;680016;29;809;-80
2021/12/30 00:52:46;;;;;;;27.25;10.55;;;;;;;14.46;67.16;100491.91;681232;29;1284;-81
2021/12/30 00:53:08;;;;;;;23.42;10.63;;;;;;;14.43;67.01;100478.72;687797;28;1302;-82
2021/12/30 00:53:29;;;;;;;22.30;10.70;;;;;;;14.43;67.23;100497.09;682632;28;1645;-81
2021/12/30 00:53:50;;;;;;;22.33;10.50;;;;;;;14.30;67.43;100487.38;687066;28;1172;-81
2021/12/30 00:54:10;;;;;;;21.85;10.60;;;;;;;14.36;67.42;100493.56;682687;29;1069;-81
2021/12/30 00:54:31;;;;;;;21.70;10.40;;;;;;;14.46;67.19;100498.88;683133;28;1453;-81
2021/12/30 00:54:52;;;;;;;20.77;10.80;;;;;;;14.46;67.10;100505.03;680200;29;1255;-81
2021/12/30 00:55:22;;;;;;;23.35;10.80;;;;;;;14.45;67.13;100510.25;677466;29;1253;-81
2021/12/30 00:55:43;;;;;;;23.40;11.00;;;;;;;14.46;66.99;100504.13;681301;28;1413;-81
2021/12/30 00:56:04;;;;;;;23.58;11.73;;;;;;;14.49;66.74;100505.03;676885;29;1691;-81
2021/12/30 00:56:24;;;;;;;27.90;11.43;;;;;;;14.45;66.97;100507.63;677384;29;835;-82
2021/12/30 00:56:45;;;;;;;30.43;11.70;;;;;;;14.46;66.90;100507.66;679627;29;1103;-81
2021/12/30 00:57:06;;;;;;;29.17;11.10;;;;;;;14.50;66.83;100517.28;677046;28;1355;-81
2021/12/30 00:57:26;;;;;;;30.80;11.25;;;;;;;14.50;66.79;100512.03;677237;29;1194;-81
2021/12/30 00:57:47;;;;;;;29.40;10.97;;;;;;;14.33;66.97;100497.91;677036;29;1040;-85
2021/12/30 00:58:08;;;;;;;30.37;11.30;;;;;;;14.31;67.08;100500.50;682531;29;1164;-81
2021/12/30 00:58:29;;;;;;;27.73;10.93;;;;;;;14.42;66.96;100513.72;682591;29;775;-81
2021/12/30 00:58:52;;;;;;;30.17;11.40;;;;;;;14.43;66.94;100515.50;679638;29;1217;-81
2021/12/30 00:59:12;;;;;;;28.27;11.00;;;;;;;14.46;66.66;100510.28;679439;28;1114;-81
2021/12/30 00:59:33;;;;;;;29.10;11.07;;;;;;;14.51;66.81;100518.19;679628;29;1192;-81
2021/12/30 00:59:53;;;;;;;28.40;10.70;;;;;;;14.47;66.47;100509.41;679121;29;1178;-81
2021/12/30 01:00:17;;;;;;;29.88;10.52;;;;;;;14.41;66.81;100511.97;680117;29;1296;-82
2021/12/30 01:00:40;;;;;;;29.80;11.82;;;;;;;14.46;66.92;100525.13;680045;29;1378;-81
2021/12/30 01:01:03;;;;;;;30.42;12.25;;;;;;;14.45;66.69;100508.50;682890;28;1845;-81
2021/12/30 01:01:24;;;;;;;30.73;12.20;;;;;;;14.53;66.87;100517.31;682238;29;1101;-81
2021/12/30 01:01:46;;;;;;;31.00;11.70;;;;;;;14.53;66.66;100512.06;682829;28;1614;-81
2021/12/30 01:02:06;;;;;;;28.27;11.05;;;;;;;14.50;66.71;100504.16;682383;29;1058;-81
2021/12/30 01:02:27;;;;;;;24.60;11.30;;;;;;;14.52;66.48;100497.19;679892;28;1266;-81
2021/12/30 01:02:48;;;;;;;21.90;11.25;;;;;;;14.57;66.43;100507.72;687367;28;1221;-81
2021/12/30 01:03:08;;;;;;;24.33;11.63;;;;;;;14.52;66.17;100505.06;687955;28;1024;-81
2021/12/30 01:03:29;;;;;;;27.23;11.40;;;;;;;14.50;66.46;100508.56;685456;28;912;-81
2021/12/30 01:03:50;;;;;;;32.05;12.63;;;;;;;14.53;66.45;100512.06;684356;28;1217;-81
2021/12/30 01:04:11;;;;;;;31.50;12.65;;;;;;;14.57;66.32;100517.34;682585;29;938;-81
2021/12/30 01:04:31;;;;;;;30.15;12.90;;;;;;;14.52;66.62;100499.81;682612;29;1205;-81
2021/12/30 01:04:52;;;;;;;28.83;12.07;;;;;;;14.53;66.39;100517.31;685218;28;1059;-82
2021/12/30 01:05:13;;;;;;;29.05;12.15;;;;;;;14.52;66.59;100512.94;677213;29;1278;-81
2021/12/30 01:05:34;;;;;;;30.85;12.60;;;;;;;14.48;66.52;100495.41;679994;29;801;-82
2021/12/30 01:05:55;;;;;;;27.00;12.98;;;;;;;14.58;66.60;100513.84;684379;28;1312;-81
2021/12/30 01:06:15;;;;;;;26.15;13.40;;;;;;;14.52;66.64;100515.56;683851;28;1667;-80
2021/12/30 01:06:36;;;;;;;26.25;13.50;;;;;;;14.61;66.27;100517.38;679884;29;1161;-80
2021/12/30 01:06:57;;;;;;;25.80;13.10;;;;;;;14.59;66.34;100507.72;677371;29;970;-81
2021/12/30 01:07:17;;;;;;;28.58;12.82;;;;;;;14.62;66.22;100520.91;677341;29;1131;-81
2021/12/30 01:07:38;;;;;;;27.75;12.73;;;;;;;14.61;66.26;100516.47;677643;29;1108;-81
2021/12/30 01:07:59;;;;;;;29.40;13.75;;;;;;;14.60;66.36;100523.50;682442;29;977;-81
2021/12/30 01:08:20;;;;;;;26.73;14.38;;;;;;;14.58;66.34;100508.59;679338;29;1967;-81
2021/12/30 01:08:41;;;;;;;27.05;14.88;;;;;;;14.62;66.20;100510.41;679793;28;1423;-81
2021/12/30 01:09:03;;;;;;;25.30;14.23;;;;;;;14.62;66.18;100510.41;679500;29;1415;-80
2021/12/30 01:09:24;;;;;;;27.58;13.02;;;;;;;14.65;66.02;100518.28;676711;29;1602;-81
2021/12/30 01:09:44;;;;;;;30.90;12.10;;;;;;;14.63;66.05;100515.63;677001;29;1216;-81
2021/12/30 01:10:09;;;;;;;32.77;12.67;;;;;;;14.53;66.18;100508.56;674523;29;1145;-81
2021/12/30 01:10:31;;;;;;;26.88;12.35;;;;;;;14.38;66.44;100496.22;674700;29;802;-81
2021/12/30 01:10:52;;;;;;;24.02;13.23;;;;;;;14.35;66.77;100499.69;681703;29;1411;-81
2021/12/30 01:11:13;;;;;;;26.67;12.95;;;;;;;14.30;66.82;100509.25;679507;29;1822;-81
2021/12/30 01:11:34;;;;;;;29.10;13.07;;;;;;;14.23;67.15;100510.06;680120;29;827;-81
2021/12/30 01:12:00;;;;;;;30.42;12.68;;;;;;;14.21;67.18;100512.69;674631;29;1388;-81
2021/12/30 01:12:21;;;;;;;27.85;12.80;;;;;;;14.20;67.28;100512.69;679778;29;1448;-81
2021/12/30 01:12:42;;;;;;;28.08;12.82;;;;;;;14.09;67.54;100505.53;682503;29;1305;-81
2021/12/30 01:13:06;;;;;;;28.05;12.20;;;;;;;14.10;67.45;100507.31;679636;29;1341;-81
2021/12/30 01:13:30;;;;;;;34.85;12.45;;;;;;;14.09;67.55;100515.19;677347;29;1170;-81
2021/12/30 01:14:04;;;;;;;38.25;13.20;;;;;;;14.07;67.66;100527.41;682347;29;1097;-81
2021/12/30 01:14:28;;;;;;;35.90;13.65;;;;;;;14.07;67.94;100532.66;679979;29;886;-80
2021/12/30 01:14:49;;;;;;;33.80;14.13;;;;;;;14.04;68.05;100532.59;679670;28;1201;-81
2021/12/30 01:15:12;;;;;;;30.40;13.80;;;;;;;14.07;68.38;100532.66;677181;29;1325;-81
2021/12/30 01:15:46;;;;;;;29.77;13.93;;;;;;;14.02;67.96;100518.59;672120;29;1598;-82
2021/12/30 01:16:17;;;;;;;31.17;13.68;;;;;;;14.08;68.46;100543.13;671776;29;1492;-81
2021/12/30 01:16:42;;;;;;;28.35;13.75;;;;;;;14.07;67.90;100533.53;679327;28;1017;-81
2021/12/30 01:17:16;;;;;;;24.23;13.60;;;;;;;14.09;68.25;100534.41;681347;29;981;-81
2021/12/30 01:17:51;;;;;;;29.35;12.90;;;;;;;14.11;67.98;100537.97;679923;29;1281;-81
2021/12/30 01:18:35;;;;;;;33.10;13.48;;;;;;;14.13;67.81;100534.47;674631;29;959;-81
2021/12/30 01:19:42;;;;;;;31.17;15.40;;;;;;;14.22;68.04;100540.72;682434;28;1209;-81
2021/12/30 01:20:04;;;;;;;33.58;14.10;;;;;;;14.23;67.93;100526.72;682324;29;1118;-81
2021/12/30 01:20:25;;;;;;;31.05;14.30;;;;;;;14.22;67.79;100522.34;679805;29;1339;-81
2021/12/30 01:20:47;;;;;;;29.33;14.45;;;;;;;14.18;67.83;100519.63;679954;29;1317;-81
2021/12/30 01:21:11;;;;;;;28.42;14.10;;;;;;;14.14;67.75;100513.53;680695;28;1764;-81
2021/12/30 01:21:33;;;;;;;29.10;14.20;;;;;;;14.17;67.92;100510.91;679919;29;887;-81
2021/12/30 01:21:54;;;;;;;39.35;15.20;;;;;;;14.16;67.68;100517.03;684922;28;1154;-81
2021/12/30 01:22:20;;;;;;;38.90;15.48;;;;;;;14.21;67.80;100525.78;682453;28;1181;-81
2021/12/30 01:22:41;;;;;;;32.85;15.05;;;;;;;14.18;67.71;100520.53;685053;28;1113;-81
2021/12/30 01:23:02;;;;;;;31.52;14.98;;;;;;;14.15;67.87;100524.88;677184;29;1132;-81
2021/12/30 01:23:23;;;;;;;30.85;14.98;;;;;;;14.27;67.72;100527.63;685181;28;1254;-81
2021/12/30 01:23:44;;;;;;;27.35;15.18;;;;;;;14.19;67.83;100521.44;682430;29;1304;-80
2021/12/30 01:24:04;;;;;;;30.90;15.73;;;;;;;14.18;67.95;100525.78;679806;29;1022;-81
2021/12/30 01:24:25;;;;;;;34.75;16.65;;;;;;;14.19;67.93;100522.28;683537;28;1196;-81
2021/12/30 01:24:47;;;;;;;38.22;16.58;;;;;;;14.15;67.70;100523.13;685030;28;1214;-82
2021/12/30 01:25:11;;;;;;;38.28;16.27;;;;;;;14.24;67.77;100535.44;682478;29;961;-81
2021/12/30 01:25:31;;;;;;;31.52;14.68;;;;;;;14.19;67.66;100524.91;674649;29;1434;-81
2021/12/30 01:25:52;;;;;;;32.23;14.40;;;;;;;14.16;67.74;100527.53;676374;29;1208;-80
2021/12/30 01:26:13;;;;;;;33.92;14.18;;;;;;;14.23;67.61;100536.31;679598;29;1915;-81
2021/12/30 01:26:34;;;;;;;38.03;14.65;;;;;;;14.16;67.72;100521.38;679842;29;1150;-81
2021/12/30 01:26:56;;;;;;;34.22;15.40;;;;;;;14.14;67.86;100528.38;674504;29;1157;-82
2021/12/30 01:27:19;;;;;;;31.40;15.88;;;;;;;14.19;68.10;100527.53;679852;29;1386;-81
2021/12/30 01:27:40;;;;;;;33.75;15.60;;;;;;;14.16;67.97;100521.38;679744;29;1383;-81
2021/12/30 01:28:01;;;;;;;32.28;15.00;;;;;;;14.11;67.82;100521.34;682453;29;1131;-81
2021/12/30 01:28:23;;;;;;;30.42;14.80;;;;;;;14.18;67.87;100541.53;682327;28;1899;-81
2021/12/30 01:28:43;;;;;;;29.25;14.90;;;;;;;14.12;67.74;100520.47;679770;28;1116;-81
2021/12/30 01:29:04;;;;;;;28.55;15.25;;;;;;;14.15;67.79;100519.63;677041;29;1611;-81
2021/12/30 01:29:29;;;;;;;28.98;15.35;;;;;;;14.11;67.58;100521.34;679450;29;1203;-80
2021/12/30 01:29:49;;;;;;;32.85;15.38;;;;;;;14.16;67.91;100540.63;679749;29;1312;-81
2021/12/30 01:30:14;;;;;;;32.80;15.27;;;;;;;14.17;67.82;100534.53;682001;29;1151;-81
2021/12/30 01:30:34;;;;;;;37.28;15.15;;;;;;;14.13;67.88;100524.84;682472;29;1206;-79
2021/12/30 01:30:56;;;;;;;33.30;14.80;;;;;;;14.11;67.85;100535.34;682306;29;1377;-81
2021/12/30 01:31:18;;;;;;;32.58;14.40;;;;;;;14.15;67.91;100552.00;677223;29;991;-81
2021/12/30 01:31:38;;;;;;;29.77;14.55;;;;;;;14.14;67.95;100534.50;679633;28;1290;-81
2021/12/30 01:31:59;;;;;;;35.75;14.98;;;;;;;14.18;67.74;100533.66;679773;29;1279;-81
2021/12/30 01:32:20;;;;;;;36.95;15.30;;;;;;;14.11;68.13;100530.09;674325;29;1443;-81
2021/12/30 01:32:42;;;;;;;38.33;15.45;;;;;;;14.19;67.98;100538.03;677277;29;1023;-81
2021/12/30 01:33:02;;;;;;;32.75;15.40;;;;;;;14.15;68.01;100538.00;682323;29;1183;-81
2021/12/30 01:33:23;;;;;;;27.88;14.90;;;;;;;14.14;68.06;100534.50;680020;29;737;-81
2021/12/30 01:33:46;;;;;;;32.30;15.02;;;;;;;14.17;67.94;100545.03;683081;28;1336;-81
2021/12/30 01:34:07;;;;;;;34.72;14.52;;;;;;;14.21;67.78;100544.16;683716;28;1288;-82
2021/12/30 01:34:27;;;;;;;34.55;14.63;;;;;;;14.15;67.60;100536.25;682642;29;940;-81
2021/12/30 01:34:48;;;;;;;30.37;14.63;;;;;;;14.13;67.84;100556.34;676078;29;1195;-81
2021/12/30 01:35:12;;;;;;;29.02;14.95;;;;;;;14.18;68.05;100552.03;679955;29;1020;-81
2021/12/30 01:35:48;;;;;;;27.25;14.85;;;;;;;14.18;67.98;100552.03;685191;28;1241;-80
2021/12/30 01:36:09;;;;;;;31.63;14.32;;;;;;;14.09;67.95;100537.03;681077;29;1132;-81
2021/12/30 01:36:30;;;;;;;32.28;14.30;;;;;;;14.01;67.98;100537.84;676908;29;1450;-80
2021/12/30 01:36:51;;;;;;;31.80;14.83;;;;;;;14.13;67.85;100545.84;678851;29;1581;-81
2021/12/30 01:37:13;;;;;;;30.90;15.38;;;;;;;14.11;68.11;100544.97;679835;29;1209;-81
2021/12/30 01:37:34;;;;;;;29.05;15.65;;;;;;;14.10;67.90;100545.78;682423;29;1257;-80
2021/12/30 01:38:00;;;;;;;29.13;15.73;;;;;;;14.09;67.92;100546.66;685416;28;1219;-81
2021/12/30 01:38:21;;;;;;;27.77;14.75;;;;;;;14.02;68.06;100543.06;685034;28;1156;-81
2021/12/30 01:38:43;;;;;;;30.52;14.50;;;;;;;14.00;68.53;100557.06;677089;29;1116;-81
2021/12/30 01:39:03;;;;;;;35.70;14.75;;;;;;;14.08;68.34;100569.38;677088;29;1069;-81
2021/12/30 01:39:24;;;;;;;38.85;15.20;;;;;;;13.98;68.36;100549.16;684695;28;1141;-82
2021/12/30 01:39:44;;;;;;;34.90;14.20;;;;;;;13.92;68.57;100555.25;685018;28;1384;-81
2021/12/30 01:40:10;;;;;;;30.00;14.17;;;;;;;14.05;68.34;100555.34;685123;28;1152;-81
2021/12/30 01:40:32;;;;;;;27.90;14.63;;;;;;;14.20;68.20;100565.16;682287;29;1755;-81
2021/12/30 01:40:54;;;;;;;33.70;16.10;;;;;;;14.16;68.08;100564.25;682403;29;1234;-82
2021/12/30 01:41:15;;;;;;;33.83;16.45;;;;;;;14.13;68.15;100553.72;679710;28;1264;-80
2021/12/30 01:41:35;;;;;;;33.75;15.65;;;;;;;14.18;67.90;100565.16;674572;29;1101;-81
2021/12/30 01:41:58;;;;;;;30.37;15.50;;;;;;;14.24;67.67;100562.59;674515;29;1138;-81
2021/12/30 01:42:19;;;;;;;32.00;15.32;;;;;;;14.18;67.61;100552.03;682422;29;1217;-81
2021/12/30 01:42:40;;;;;;;29.52;15.07;;;;;;;14.18;67.77;100552.03;682484;29;1070;-81